createdAt,value
2022-11-09T00:04:43.483Z,53.40
2022-11-09T00:14:49.794Z,50.00
2022-11-09T00:24:56.455Z,49.80
2022-11-09T00:35:02.761Z,57.00
2022-11-09T00:45:09.356Z,59.10
2022-11-09T00:55:16.423Z,53.40
2022-11-09T01:05:22.740Z,49.10
2022-11-09T01:15:29.148Z,49.00
2022-11-09T01:25:35.706Z,43.70
2022-11-09T01:35:42.562Z,41.90
2022-11-09T01:45:53.268Z,43.00
2022-11-09T01:56:03.260Z,41.30
2022-11-09T02:06:11.752Z,41.30
2022-11-09T02:16:19.094Z,40.40
2022-11-09T02:26:30.211Z,38.60
2022-11-09T02:36:36.732Z,38.80
2022-11-09T02:46:43.447Z,39.50
2022-11-09T02:56:49.753Z,39.00
2022-11-09T03:06:56.079Z,37.00
2022-11-09T03:17:02.414Z,36.90
2022-11-09T03:27:08.856Z,40.20
2022-11-09T03:37:15.589Z,40.90
2022-11-09T03:47:22.094Z,51.40
2022-11-09T03:57:28.408Z,51.10
2022-11-09T04:07:34.878Z,52.70
2022-11-09T04:17:41.555Z,48.60
2022-11-09T04:27:47.866Z,45.70
2022-11-09T04:37:56.311Z,44.30
2022-11-09T04:48:04.217Z,49.30
2022-11-09T04:58:11.249Z,59.10
2022-11-09T05:08:17.600Z,55.20
2022-11-09T05:18:24.022Z,56.00
2022-11-09T05:28:30.336Z,60.60
2022-11-09T05:38:36.696Z,52.30
2022-11-09T05:48:43.882Z,49.60
2022-11-09T05:58:50.195Z,55.60
2022-11-09T06:08:56.771Z,53.00
2022-11-09T06:19:03.285Z,50.30
2022-11-09T06:29:11.247Z,55.10
2022-11-09T06:39:17.608Z,60.30
2022-11-09T06:49:24.042Z,56.30
2022-11-09T06:59:30.419Z,57.20
2022-11-09T07:09:36.730Z,57.30
2022-11-09T07:19:43.023Z,50.40
2022-11-09T07:29:49.421Z,58.50
2022-11-09T07:39:55.740Z,58.10
2022-11-09T07:50:02.080Z,60.20
2022-11-09T08:00:09.102Z,49.20
2022-11-09T08:10:15.713Z,49.90
2022-11-09T08:20:22.631Z,45.10
2022-11-09T08:30:29.032Z,40.30
2022-11-09T08:40:35.674Z,41.20
2022-11-09T08:50:41.984Z,40.70
2022-11-09T09:00:48.284Z,42.40
2022-11-09T09:10:54.575Z,39.20
2022-11-09T09:21:00.904Z,37.90
2022-11-09T09:31:07.868Z,38.90
2022-11-09T09:41:20.363Z,36.60
2022-11-09T09:51:39.522Z,37.30
2022-11-09T10:01:46.341Z,37.00
2022-11-09T10:12:04.589Z,37.90
2022-11-09T10:22:21.480Z,36.20
2022-11-09T10:32:31.193Z,34.20
2022-11-09T10:42:37.712Z,33.10
2022-11-09T10:52:47.587Z,27.30
2022-11-09T11:02:55.413Z,30.30
2022-11-09T11:13:01.640Z,32.00
2022-11-09T11:23:17.190Z,31.50
2022-11-09T11:33:24.092Z,37.90
2022-11-09T11:43:41.162Z,37.30
2022-11-09T11:54:18.391Z,32.00
2022-11-09T12:04:41.589Z,31.60
2022-11-09T12:14:57.913Z,32.60
2022-11-09T12:25:29.057Z,29.60
2022-11-09T12:35:42.315Z,31.50
2022-11-09T12:45:49.304Z,33.10
2022-11-09T12:56:12.628Z,31.70
2022-11-09T13:06:27.029Z,30.00
2022-11-09T13:16:36.010Z,29.30
2022-11-09T13:26:47.378Z,29.55
2022-11-09T13:37:31.549Z,31.30
2022-11-09T13:47:38.415Z,32.50
2022-11-09T13:57:46.222Z,33.70
2022-11-09T14:07:54.488Z,33.80
2022-11-09T14:18:39.427Z,37.80
2022-11-09T14:28:45.809Z,35.40
2022-11-09T14:38:52.136Z,34.70
2022-11-09T14:49:03.280Z,35.90
2022-11-09T14:59:14.090Z,34.40
2022-11-09T15:09:22.948Z,36.70
2022-11-09T15:19:32.881Z,36.70
2022-11-09T15:29:43.930Z,39.50
2022-11-09T15:39:50.267Z,42.50
2022-11-09T15:49:56.603Z,42.50
2022-11-09T16:00:09.222Z,50.10
2022-11-09T16:10:21.525Z,47.20
2022-11-09T16:20:27.855Z,48.50
2022-11-09T16:30:34.244Z,49.20
2022-11-09T16:40:40.657Z,52.90
2022-11-09T16:50:48.219Z,62.60
2022-11-09T17:01:12.332Z,70.20
2022-11-09T17:11:19.593Z,60.00
2022-11-09T17:21:27.447Z,60.50
2022-11-09T17:31:34.396Z,61.70
2022-11-09T17:41:42.784Z,58.60
2022-11-09T17:51:49.384Z,61.70
2022-11-09T18:01:57.454Z,56.10
2022-11-09T18:12:03.904Z,73.30
2022-11-09T18:22:12.911Z,67.00
2022-11-09T18:32:19.420Z,66.70
2022-11-09T18:42:25.740Z,62.60
2022-11-09T18:52:34.020Z,60.50
2022-11-09T19:02:40.861Z,60.00
2022-11-09T19:12:47.686Z,60.70
2022-11-09T19:22:54.066Z,59.80
2022-11-09T19:33:00.379Z,56.60
2022-11-09T19:43:06.671Z,60.20
2022-11-09T19:53:13.083Z,64.00
2022-11-09T20:03:19.426Z,58.90
2022-11-09T20:13:25.813Z,58.80
2022-11-09T20:23:32.117Z,63.80
2022-11-09T20:33:38.576Z,59.50
2022-11-09T20:43:44.938Z,58.10
2022-11-09T20:53:51.826Z,58.30
2022-11-09T21:03:58.172Z,57.80
2022-11-09T21:14:04.538Z,56.40
2022-11-09T21:24:29.306Z,51.20
2022-11-09T21:34:37.392Z,47.50
2022-11-09T21:44:43.918Z,49.30
2022-11-09T21:54:50.218Z,49.30
2022-11-09T22:04:56.518Z,46.80
2022-11-09T22:15:21.357Z,44.70
2022-11-09T22:25:27.656Z,48.80
2022-11-09T22:35:33.954Z,44.70
2022-11-09T22:45:40.280Z,43.50
2022-11-09T22:55:56.076Z,44.60
2022-11-09T23:06:04.541Z,44.20
2022-11-09T23:16:12.649Z,44.10
2022-11-09T23:26:19.344Z,42.80
2022-11-09T23:36:27.246Z,41.80
2022-11-09T23:46:33.569Z,41.90
2022-11-09T23:56:39.844Z,47.20
